Time;durP1;ratioP1;P1;durP2;ratioP2;P2;SDS_P1;SDS_P2;PMS_P1;PMS_P2;Temp;Humidity;BMP_temperature;BMP_pressure;BME280_temperature;BME280_humidity;BME280_pressure;Samples;Min_cycle;Max_cycle;Signal;HPM_P1;HPM_P2
2022/12/04 00:01:40;;;;;;;35.63;18.30;;;1.70;99.90;;;;;;5053671;28;20041;-73
2022/12/04 00:04:06;;;;;;;37.83;18.83;;;1.60;99.90;;;;;;5036789;28;20128;-73
2022/12/04 00:06:35;;;;;;;38.15;19.00;;;1.70;99.90;;;;;;5053376;28;20068;-72
2022/12/04 00:09:01;;;;;;;33.53;17.83;;;1.60;99.90;;;;;;5036760;28;20129;-73
2022/12/04 00:11:28;;;;;;;32.67;17.05;;;1.60;99.90;;;;;;5053254;28;20072;-73
2022/12/04 00:13:55;;;;;;;38.28;18.88;;;1.60;99.90;;;;;;5053029;28;20126;-73
2022/12/04 00:16:23;;;;;;;38.33;20.10;;;1.60;99.90;;;;;;5053152;28;20119;-73
2022/12/04 00:18:49;;;;;;;33.88;16.80;;;1.70;99.90;;;;;;5053170;28;20037;-73
2022/12/04 00:21:16;;;;;;;35.72;19.80;;;1.60;99.90;;;;;;5036728;28;20123;-73
2022/12/04 00:23:43;;;;;;;36.83;18.38;;;1.60;99.90;;;;;;5036260;28;20037;-73
2022/12/04 00:26:17;;;;;;;43.30;19.55;;;1.60;99.90;;;;;;5052709;28;20415;-73
2022/12/04 00:28:43;;;;;;;38.03;19.55;;;1.60;99.90;;;;;;5036617;28;20048;-73
2022/12/04 00:31:15;;;;;;;38.60;19.58;;;1.50;99.90;;;;;;5054842;28;20099;-73
2022/12/04 00:33:40;;;;;;;37.28;17.65;;;1.60;99.90;;;;;;5037763;28;20044;-73
2022/12/04 00:36:12;;;;;;;34.88;18.85;;;1.50;99.90;;;;;;5054554;28;20049;-73
2022/12/04 00:38:39;;;;;;;37.40;17.90;;;1.40;99.90;;;;;;5053468;28;20037;-72
2022/12/04 00:41:07;;;;;;;35.40;19.35;;;1.50;99.90;;;;;;5053066;28;20546;-73
2022/12/04 00:43:32;;;;;;;37.90;19.48;;;1.50;99.90;;;;;;5052312;28;20040;-73
2022/12/04 00:45:58;;;;;;;39.55;19.23;;;1.50;99.90;;;;;;5054059;28;20083;-75
2022/12/04 00:48:24;;;;;;;38.63;18.02;;;1.50;99.90;;;;;;5052998;28;20127;-75
2022/12/04 00:50:50;;;;;;;37.00;18.65;;;1.50;99.90;;;;;;5053414;28;20041;-75
2022/12/04 00:53:16;;;;;;;37.10;19.95;;;1.50;99.90;;;;;;5052544;28;20079;-75
2022/12/04 00:55:42;;;;;;;40.03;19.05;;;1.50;99.90;;;;;;5053104;28;20514;-75
2022/12/04 00:58:09;;;;;;;39.03;20.33;;;1.50;99.90;;;;;;5052963;28;20380;-75
2022/12/04 01:00:36;;;;;;;37.60;18.77;;;1.50;99.90;;;;;;5052966;28;20098;-75
2022/12/04 01:03:02;;;;;;;36.55;19.17;;;1.50;99.90;;;;;;5052630;28;20045;-75
2022/12/04 01:05:28;;;;;;;40.17;21.15;;;1.50;99.90;;;;;;5052866;28;20056;-75
2022/12/04 01:07:54;;;;;;;41.35;21.73;;;1.50;99.90;;;;;;5052597;28;20549;-75
2022/12/04 01:10:19;;;;;;;40.08;21.08;;;1.40;99.90;;;;;;5052580;28;20483;-75
2022/12/04 01:12:48;;;;;;;41.25;22.10;;;1.40;99.90;;;;;;5052182;28;20495;-75
2022/12/04 01:15:13;;;;;;;44.30;20.75;;;1.40;99.90;;;;;;5052247;28;20076;-73
2022/12/04 01:17:39;;;;;;;40.60;21.20;;;1.30;99.90;;;;;;5052318;28;20072;-73
2022/12/04 01:20:05;;;;;;;43.40;21.83;;;1.30;99.90;;;;;;5052030;28;20509;-73
2022/12/04 01:22:31;;;;;;;42.60;21.50;;;1.30;99.90;;;;;;5051748;28;20063;-73
2022/12/04 01:24:57;;;;;;;43.58;22.15;;;1.30;99.90;;;;;;5052317;28;20040;-73
2022/12/04 01:27:23;;;;;;;44.97;23.38;;;1.20;99.90;;;;;;5051787;28;20460;-73
2022/12/04 01:29:49;;;;;;;46.42;22.48;;;1.20;99.90;;;;;;5035131;28;20044;-72
2022/12/04 01:32:14;;;;;;;45.03;22.90;;;1.20;99.90;;;;;;5035023;28;20037;-73
2022/12/04 01:34:40;;;;;;;52.20;24.33;;;1.20;99.90;;;;;;5051744;28;20044;-73
2022/12/04 01:37:06;;;;;;;41.60;22.13;;;1.30;99.90;;;;;;5051714;28;20140;-73
2022/12/04 01:39:34;;;;;;;48.58;24.98;;;1.20;99.90;;;;;;5051558;28;20372;-73
2022/12/04 01:41:59;;;;;;;50.88;25.27;;;1.20;99.90;;;;;;5051539;28;20044;-72
2022/12/04 01:44:25;;;;;;;47.20;23.65;;;1.20;99.90;;;;;;5051295;28;20045;-73
2022/12/04 01:47:00;;;;;;;50.85;24.38;;;1.20;99.90;;;;;;5051560;28;20039;-72
2022/12/04 01:49:37;;;;;;;51.85;22.98;;;1.10;99.90;;;;;;5051450;28;20048;-72
2022/12/04 01:52:22;;;;;;;45.60;22.75;;;1.10;99.90;;;;;;5051473;28;20041;-73
2022/12/04 01:54:53;;;;;;;45.53;22.15;;;1.20;99.90;;;;;;5050587;28;20507;-73
2022/12/04 01:57:20;;;;;;;49.30;23.25;;;1.20;99.90;;;;;;5051348;28;20045;-73
2022/12/04 01:59:56;;;;;;;46.30;22.90;;;1.10;99.90;;;;;;5051072;28;20049;-73
2022/12/04 02:02:28;;;;;;;49.45;23.27;;;1.20;99.90;;;;;;5050999;28;20044;-72
2022/12/04 02:04:55;;;;;;;47.83;24.50;;;1.20;99.90;;;;;;5051495;28;20052;-73
2022/12/04 02:07:21;;;;;;;52.58;26.70;;;1.20;99.90;;;;;;5051285;28;20040;-73
2022/12/04 02:09:52;;;;;;;49.15;23.42;;;1.20;99.90;;;;;;5034441;28;20514;-73
2022/12/04 02:13:00;;;;;;;46.70;22.63;;;1.10;99.90;;;;;;5051030;28;20059;-73
2022/12/04 02:15:40;;;;;;;52.53;24.15;;;1.20;99.90;;;;;;5037681;28;20155;-73
2022/12/04 02:18:23;;;;;;;56.63;24.98;;;1.10;99.90;;;;;;5051165;28;20044;-73
2022/12/04 02:21:08;;;;;;;;;;;1.10;99.90;;;;;;5051509;28;20510;-73
2022/12/04 02:23:49;;;;;;;57.72;25.40;;;1.20;99.90;;;;;;5034173;28;19920;-75
2022/12/04 02:26:21;;;;;;;51.10;24.17;;;1.20;99.90;;;;;;5051006;28;20068;-75
2022/12/04 02:28:52;;;;;;;50.53;23.00;;;1.00;99.90;;;;;;5051231;28;20052;-75
2022/12/04 02:31:23;;;;;;;49.15;25.60;;;1.10;99.90;;;;;;5051126;28;20490;-75
2022/12/04 02:34:13;;;;;;;48.95;24.55;;;1.10;99.90;;;;;;5034351;28;20045;-75
2022/12/04 02:36:51;;;;;;;54.90;26.25;;;1.10;99.90;;;;;;5050825;28;20115;-75
2022/12/04 02:39:36;;;;;;;52.80;26.67;;;1.10;99.90;;;;;;5050565;28;20499;-75
2022/12/04 02:42:12;;;;;;;50.00;25.40;;;1.00;99.90;;;;;;5050870;28;20515;-75
2022/12/04 02:44:48;;;;;;;52.80;24.25;;;1.00;99.90;;;;;;5050481;28;20120;-75
2022/12/04 02:47:18;;;;;;;65.93;27.08;;;1.00;99.90;;;;;;5050668;28;20060;-75
2022/12/04 02:49:50;;;;;;;56.90;28.85;;;1.00;99.90;;;;;;5050855;28;20043;-75
2022/12/04 02:52:23;;;;;;;60.00;26.55;;;1.00;99.90;;;;;;5050715;28;20074;-75
2022/12/04 02:54:54;;;;;;;51.65;24.48;;;1.10;99.90;;;;;;5050543;28;20040;-75
2022/12/04 02:57:28;;;;;;;53.03;25.48;;;1.00;99.90;;;;;;5050685;28;20126;-75
2022/12/04 02:59:56;;;;;;;49.40;26.08;;;0.90;99.90;;;;;;5050480;28;20065;-75
2022/12/04 03:02:24;;;;;;;48.63;26.60;;;0.90;99.90;;;;;;5033870;28;20036;-75
2022/12/04 03:04:52;;;;;;;53.45;26.10;;;0.90;99.90;;;;;;5050660;28;20449;-75
2022/12/04 03:07:38;;;;;;;54.83;27.10;;;0.90;99.90;;;;;;5051583;28;20083;-75
2022/12/04 03:10:19;;;;;;;63.75;26.08;;;1.00;99.90;;;;;;5083770;22;20067;-76
2022/12/04 03:12:49;;;;;;;57.88;27.98;;;0.90;99.90;;;;;;5091152;28;20127;-76
2022/12/04 03:15:26;;;;;;;58.35;28.45;;;0.90;99.90;;;;;;5073905;28;20062;-76
2022/12/04 03:18:13;;;;;;;60.20;28.80;;;1.00;99.90;;;;;;5090265;28;20413;-76
2022/12/04 03:20:41;;;;;;;53.80;26.90;;;0.90;99.90;;;;;;5090716;28;20036;-76
2022/12/04 03:23:18;;;;;;;52.00;24.13;;;0.90;99.90;;;;;;5073657;28;20059;-76
2022/12/04 03:26:01;;;;;;;55.20;25.63;;;0.90;99.90;;;;;;5090788;28;20085;-76
2022/12/04 03:28:45;;;;;;;59.42;28.00;;;0.90;99.90;;;;;;5090444;28;20035;-76
2022/12/04 03:31:13;;;;;;;59.58;28.73;;;1.00;99.90;;;;;;5090330;28;20036;-76
2022/12/04 03:33:43;;;;;;;52.40;25.85;;;0.90;99.90;;;;;;5090512;28;20119;-76
2022/12/04 03:36:37;;;;;;;58.97;28.52;;;0.80;99.90;;;;;;5090281;28;20528;-76
2022/12/04 03:39:08;;;;;;;57.45;26.52;;;0.90;99.90;;;;;;5082132;28;20070;-76
2022/12/04 03:42:21;;;;;;;56.13;26.63;;;0.80;99.90;;;;;;5090529;28;20032;-77
2022/12/04 03:45:02;;;;;;;58.13;27.93;;;0.70;99.90;;;;;;5076638;28;20048;-76
2022/12/04 03:47:40;;;;;;;55.05;26.65;;;0.70;99.90;;;;;;5090394;28;20121;-76
2022/12/04 03:50:18;;;;;;;54.67;26.67;;;0.80;99.90;;;;;;5090594;28;20055;-76
2022/12/04 03:52:55;;;;;;;59.40;27.92;;;0.70;99.90;;;;;;5090445;28;20379;-76
2022/12/04 03:55:24;;;;;;;58.70;27.95;;;0.70;99.90;;;;;;5090547;28;20060;-76
2022/12/04 03:57:51;;;;;;;55.20;26.40;;;0.90;99.90;;;;;;5090332;28;20505;-76
2022/12/04 04:00:21;;;;;;;59.45;27.77;;;0.70;99.90;;;;;;5090076;28;20044;-77
2022/12/04 04:02:58;;;;;;;60.67;28.63;;;0.70;99.90;;;;;;5089837;28;20043;-76
2022/12/04 04:05:25;;;;;;;56.88;27.58;;;0.70;99.90;;;;;;5090167;28;20047;-76
2022/12/04 04:08:24;;;;;;;59.85;28.27;;;0.80;99.90;;;;;;5090231;28;20093;-76
2022/12/04 04:10:45;;;;;;;56.25;29.00;;;0.90;99.90;;;;;;5089646;28;20113;-76
2022/12/04 04:24:41;;;;;;;59.35;28.13;;;0.90;99.90;;;;;;5093732;28;20102;-76
2022/12/04 04:27:07;;;;;;;64.32;30.15;;;0.70;99.90;;;;;;5093585;28;20032;-77
2022/12/04 04:29:33;;;;;;;58.80;30.45;;;0.70;99.90;;;;;;5093523;28;20375;-76
2022/12/04 04:32:08;;;;;;;60.72;27.38;;;0.80;99.90;;;;;;5093608;28;20040;-76
2022/12/04 04:34:48;;;;;;;57.50;27.63;;;0.80;99.90;;;;;;5093594;28;20595;-76
2022/12/04 04:37:24;;;;;;;58.10;29.92;;;0.60;99.90;;;;;;5093414;28;20032;-76
2022/12/04 04:40:04;;;;;;;57.20;27.75;;;0.70;99.90;;;;;;5093380;28;20493;-77
2022/12/04 04:42:48;;;;;;;56.17;28.35;;;0.80;99.90;;;;;;5093109;28;20047;-76
2022/12/04 04:45:32;;;;;;;58.45;26.80;;;0.70;99.90;;;;;;5093402;28;20075;-77
2022/12/04 04:48:10;;;;;;;;;;;0.80;99.90;;;;;;5093826;28;20078;-76
2022/12/04 04:50:37;;;;;;;63.97;27.65;;;0.60;99.90;;;;;;5093127;28;19920;-76
2022/12/04 04:53:11;;;;;;;68.22;30.60;;;0.60;99.90;;;;;;5093297;28;20119;-76
2022/12/04 04:55:37;;;;;;;59.90;27.67;;;0.80;99.90;;;;;;5076650;28;20050;-77
2022/12/04 04:58:14;;;;;;;56.10;26.55;;;0.70;99.90;;;;;;5094261;28;20506;-76
2022/12/04 05:00:44;;;;;;;57.08;29.08;;;0.70;99.90;;;;;;5092967;28;20490;-76
2022/12/04 05:03:10;;;;;;;59.28;29.52;;;0.80;99.90;;;;;;5092703;28;20040;-77
2022/12/04 05:05:35;;;;;;;58.20;29.38;;;0.80;99.90;;;;;;5093164;28;20032;-76
2022/12/04 05:08:01;;;;;;;56.83;27.63;;;0.80;99.90;;;;;;5089502;28;20068;-76
2022/12/04 05:10:27;;;;;;;56.78;27.92;;;0.70;99.90;;;;;;5092433;28;20040;-76
2022/12/04 05:12:52;;;;;;;57.47;27.98;;;0.80;99.90;;;;;;5084464;28;20478;-76
2022/12/04 05:15:18;;;;;;;55.42;28.60;;;0.70;99.90;;;;;;5072557;28;20123;-77
2022/12/04 05:17:43;;;;;;;58.80;27.92;;;0.90;99.90;;;;;;5072457;28;20406;-76
2022/12/04 05:20:09;;;;;;;56.67;27.85;;;0.80;99.90;;;;;;5055697;28;20040;-76
2022/12/04 05:22:36;;;;;;;56.53;28.60;;;0.80;99.90;;;;;;5071964;28;20044;-76
2022/12/04 05:25:03;;;;;;;54.58;27.05;;;0.80;99.90;;;;;;5090304;28;20032;-76
2022/12/04 05:27:30;;;;;;;59.33;27.00;;;0.90;99.90;;;;;;5072301;28;20089;-77
2022/12/04 05:29:56;;;;;;;56.58;28.00;;;0.90;99.90;;;;;;5071007;28;20056;-76
2022/12/04 05:32:24;;;;;;;56.80;28.73;;;0.90;99.90;;;;;;5072155;28;20461;-76
2022/12/04 05:34:51;;;;;;;57.15;28.27;;;0.70;99.90;;;;;;5072355;28;20055;-76
2022/12/04 05:37:17;;;;;;;62.35;29.02;;;0.80;99.90;;;;;;5072291;28;20406;-76
2022/12/04 05:39:43;;;;;;;62.65;28.25;;;0.90;99.90;;;;;;5071843;28;20036;-76
2022/12/04 05:42:09;;;;;;;60.72;27.98;;;0.90;99.90;;;;;;5071968;28;20037;-76
2022/12/04 05:44:34;;;;;;;54.95;27.52;;;0.90;99.90;;;;;;5071657;28;20514;-75
2022/12/04 05:47:00;;;;;;;57.22;28.25;;;0.70;99.90;;;;;;5072116;28;20040;-74
2022/12/04 05:49:28;;;;;;;56.80;28.63;;;0.80;99.90;;;;;;5071981;28;20099;-75
2022/12/04 05:51:53;;;;;;;56.30;26.25;;;0.80;99.90;;;;;;5055270;28;20037;-74
2022/12/04 05:54:19;;;;;;;51.20;27.23;;;0.90;99.90;;;;;;5071331;28;20530;-75
2022/12/04 05:56:45;;;;;;;59.83;29.50;;;0.80;99.90;;;;;;5071695;28;20043;-75
2022/12/04 05:59:11;;;;;;;58.38;29.58;;;0.80;99.90;;;;;;5072841;28;20049;-77
2022/12/04 06:01:36;;;;;;;52.42;26.55;;;0.90;99.90;;;;;;5084657;28;20039;-75
2022/12/04 06:04:02;;;;;;;57.90;31.30;;;0.80;99.90;;;;;;5081816;28;20032;-75
2022/12/04 06:06:28;;;;;;;60.35;29.10;;;0.90;99.90;;;;;;5071451;28;20044;-75
2022/12/04 06:08:56;;;;;;;59.85;29.35;;;1.00;99.90;;;;;;5071394;28;20154;-75
2022/12/04 06:11:25;;;;;;;58.38;27.92;;;0.90;99.90;;;;;;5071154;28;20076;-75
2022/12/04 06:13:50;;;;;;;59.53;27.30;;;1.00;99.90;;;;;;5071043;28;20045;-75
2022/12/04 06:16:28;;;;;;;57.83;27.05;;;0.90;99.90;;;;;;5071276;28;20040;-75
2022/12/04 06:18:56;;;;;;;57.10;27.35;;;0.90;99.90;;;;;;5071087;28;20085;-75
2022/12/04 06:21:24;;;;;;;60.08;27.83;;;1.00;99.90;;;;;;5054565;28;20115;-75
2022/12/04 06:23:50;;;;;;;57.50;26.73;;;0.80;99.90;;;;;;5070813;28;20029;-75
2022/12/04 06:26:16;;;;;;;53.70;28.13;;;0.90;99.90;;;;;;5071277;28;20379;-76
2022/12/04 06:28:42;;;;;;;63.25;29.33;;;0.80;99.90;;;;;;5071160;28;20146;-76
2022/12/04 06:31:10;;;;;;;61.72;29.25;;;0.70;99.90;;;;;;5071302;28;20126;-77
2022/12/04 06:33:37;;;;;;;62.90;31.23;;;0.90;99.90;;;;;;5070925;28;20527;-76
2022/12/04 06:36:10;;;;;;;60.92;30.17;;;1.00;99.90;;;;;;5071105;28;20124;-76
2022/12/04 06:38:35;;;;;;;62.90;30.10;;;0.90;99.90;;;;;;5070959;28;20129;-77
2022/12/04 06:41:06;;;;;;;59.75;28.77;;;1.00;99.90;;;;;;5070460;28;20104;-75
2022/12/04 06:43:32;;;;;;;59.55;26.88;;;1.00;99.90;;;;;;5070411;28;20371;-75
2022/12/04 06:46:03;;;;;;;62.88;30.77;;;0.90;99.90;;;;;;5070648;28;20039;-75
2022/12/04 06:48:30;;;;;;;65.95;31.40;;;0.90;99.90;;;;;;5070689;28;20037;-75
2022/12/04 06:51:07;;;;;;;60.95;30.25;;;1.00;99.90;;;;;;5070574;28;20040;-75
2022/12/04 06:53:33;;;;;;;62.58;29.17;;;0.90;99.90;;;;;;5053731;28;20036;-75
2022/12/04 06:56:01;;;;;;;65.78;31.33;;;0.90;99.90;;;;;;5054171;28;20102;-75
2022/12/04 06:58:28;;;;;;;63.03;29.70;;;1.00;99.90;;;;;;5086321;28;20040;-75
2022/12/04 07:00:54;;;;;;;63.03;30.02;;;1.00;99.90;;;;;;5073987;28;20044;-75
2022/12/04 07:03:21;;;;;;;61.40;29.42;;;0.70;99.90;;;;;;5070301;28;20033;-75
2022/12/04 07:05:46;;;;;;;58.28;28.88;;;0.70;99.90;;;;;;5070520;28;20033;-75
2022/12/04 07:08:13;;;;;;;61.53;30.52;;;0.90;99.90;;;;;;5070412;28;20048;-76
2022/12/04 07:10:39;;;;;;;58.55;29.00;;;1.00;99.90;;;;;;5053551;28;20041;-75
2022/12/04 07:13:06;;;;;;;61.10;29.77;;;0.80;99.90;;;;;;5053360;28;20102;-75
2022/12/04 07:15:33;;;;;;;59.90;28.15;;;0.90;99.90;;;;;;5070266;28;20083;-75
2022/12/04 07:17:59;;;;;;;62.88;30.17;;;1.00;99.90;;;;;;5070434;28;20482;-75
2022/12/04 07:20:25;;;;;;;68.68;31.88;;;0.90;99.90;;;;;;5053465;28;20075;-75
2022/12/04 07:22:51;;;;;;;62.65;29.77;;;0.90;99.90;;;;;;5070335;28;20037;-76
2022/12/04 07:25:17;;;;;;;63.65;28.95;;;1.00;99.90;;;;;;5053544;28;20044;-74
2022/12/04 07:27:42;;;;;;;63.90;31.73;;;0.80;99.90;;;;;;5070535;28;20040;-75
2022/12/04 07:30:08;;;;;;;69.78;34.25;;;0.80;99.90;;;;;;5070115;28;20037;-75
2022/12/04 07:32:34;;;;;;;68.80;33.47;;;1.00;99.90;;;;;;5053236;28;20029;-75
2022/12/04 07:35:00;;;;;;;67.18;30.90;;;1.00;99.90;;;;;;5070459;28;20462;-75
2022/12/04 07:37:25;;;;;;;68.90;31.90;;;0.90;99.90;;;;;;5070125;28;20123;-75
2022/12/04 07:39:51;;;;;;;71.43;32.88;;;1.00;99.90;;;;;;5070025;28;20458;-75
2022/12/04 07:42:18;;;;;;;68.75;32.58;;;0.80;99.90;;;;;;5069990;28;20036;-76
2022/12/04 07:44:43;;;;;;;72.13;33.53;;;1.00;99.90;;;;;;5069995;28;20501;-75
2022/12/04 07:47:09;;;;;;;62.20;30.75;;;0.90;99.90;;;;;;5070085;28;20124;-75
2022/12/04 07:49:35;;;;;;;60.13;30.15;;;0.90;99.90;;;;;;5070000;28;20051;-75
2022/12/04 07:52:00;;;;;;;65.47;30.23;;;1.00;99.90;;;;;;5070287;28;20076;-76
2022/12/04 07:54:26;;;;;;;65.35;32.40;;;1.10;99.90;;;;;;5072639;28;20516;-76
2022/12/04 07:56:51;;;;;;;66.75;33.03;;;1.20;99.90;;;;;;5074013;28;20037;-75
2022/12/04 07:59:17;;;;;;;63.63;32.30;;;1.00;99.90;;;;;;5073845;28;20098;-76
2022/12/04 08:01:43;;;;;;;59.58;30.15;;;0.90;99.90;;;;;;5073854;28;20498;-75
2022/12/04 08:04:10;;;;;;;62.35;30.83;;;1.10;99.90;;;;;;5057064;28;20086;-76
2022/12/04 08:06:36;;;;;;;60.35;28.98;;;1.20;99.90;;;;;;5057058;28;20040;-76
2022/12/04 08:09:02;;;;;;;64.10;30.80;;;1.00;99.90;;;;;;5073951;28;20044;-74
2022/12/04 08:11:28;;;;;;;56.60;28.08;;;1.10;99.90;;;;;;5060985;28;20036;-75
2022/12/04 08:13:56;;;;;;;58.25;28.90;;;1.00;99.90;;;;;;5065709;28;20043;-75
2022/12/04 08:16:26;;;;;;;56.72;27.20;;;1.20;99.90;;;;;;5067024;28;20102;-76
2022/12/04 08:18:52;;;;;;;61.80;28.40;;;1.20;99.90;;;;;;5073287;28;20052;-76
2022/12/04 08:21:21;;;;;;;60.60;27.45;;;1.30;99.90;;;;;;5056762;28;20043;-76
2022/12/04 08:23:49;;;;;;;63.58;28.38;;;1.20;99.90;;;;;;5073383;28;20040;-75
2022/12/04 08:26:15;;;;;;;59.25;27.98;;;1.10;99.90;;;;;;5073220;28;20119;-76
2022/12/04 08:28:41;;;;;;;56.53;26.60;;;1.10;99.90;;;;;;5073348;28;20086;-76
2022/12/04 08:31:22;;;;;;;55.83;26.95;;;1.20;99.90;;;;;;5090447;28;20086;-76
2022/12/04 08:33:50;;;;;;;57.47;28.50;;;1.00;99.90;;;;;;5056385;28;20040;-76
2022/12/04 08:36:19;;;;;;;55.05;27.20;;;1.20;99.90;;;;;;5073478;28;20114;-76
2022/12/04 08:38:45;;;;;;;53.30;25.05;;;1.10;99.90;;;;;;5073260;28;20086;-77
2022/12/04 08:41:12;;;;;;;59.65;29.10;;;1.30;99.90;;;;;;5073021;28;20064;-76
2022/12/04 08:43:38;;;;;;;50.00;24.35;;;1.40;99.90;;;;;;5056097;28;20115;-76
2022/12/04 08:46:12;;;;;;;59.90;29.90;;;1.30;99.90;;;;;;5073399;28;20178;-75
2022/12/04 08:48:39;;;;;;;55.97;27.83;;;1.40;99.90;;;;;;5073326;28;20041;-76
2022/12/04 08:51:13;;;;;;;51.42;25.33;;;1.50;99.90;;;;;;5073891;28;20040;-77
2022/12/04 08:53:39;;;;;;;51.45;25.85;;;1.50;99.90;;;;;;5087273;28;20036;-77
2022/12/04 08:56:05;;;;;;;52.72;25.77;;;1.50;99.90;;;;;;5076499;28;20182;-76
2022/12/04 08:58:31;;;;;;;55.85;28.25;;;1.40;99.90;;;;;;5093178;28;20513;-77
2022/12/04 09:01:06;;;;;;;50.97;25.90;;;1.60;99.90;;;;;;5079546;28;20031;-77
2022/12/04 09:03:32;;;;;;;53.88;25.08;;;1.30;99.90;;;;;;5106105;28;20028;-76
2022/12/04 09:05:59;;;;;;;51.00;25.23;;;1.60;99.90;;;;;;5093398;28;20094;-77
2022/12/04 09:08:25;;;;;;;56.10;27.05;;;1.50;99.90;;;;;;5093864;28;20040;-78
2022/12/04 09:11:11;;;;;;;58.22;28.13;;;1.50;99.90;;;;;;5094260;28;20066;-77
2022/12/04 09:13:46;;;;;;;67.28;31.45;;;1.60;99.90;;;;;;5077025;28;20036;-75
2022/12/04 09:16:15;;;;;;;49.83;24.75;;;1.70;99.90;;;;;;5092548;28;20074;-76
2022/12/04 09:18:42;;;;;;;61.13;29.30;;;1.60;99.90;;;;;;5078595;28;20100;-75
2022/12/04 09:21:10;;;;;;;67.10;30.63;;;1.70;99.90;;;;;;5076076;28;20382;-76
2022/12/04 09:23:37;;;;;;;57.20;29.70;;;1.80;99.90;;;;;;5075732;28;20146;-76
2022/12/04 09:26:17;;;;;;;53.17;27.63;;;1.80;99.90;;;;;;5092542;28;20050;-76
2022/12/04 09:28:42;;;;;;;52.28;25.73;;;1.80;99.90;;;;;;5092344;28;20505;-76
2022/12/04 09:31:08;;;;;;;56.90;27.30;;;1.60;99.90;;;;;;5075417;28;20078;-77
2022/12/04 09:33:33;;;;;;;54.72;28.17;;;1.70;99.90;;;;;;5093211;28;20040;-77
2022/12/04 09:36:00;;;;;;;52.67;26.27;;;1.90;99.90;;;;;;5076535;28;20032;-77
2022/12/04 09:38:27;;;;;;;46.67;24.73;;;1.80;99.90;;;;;;5093585;28;20426;-77
2022/12/04 09:40:58;;;;;;;46.55;24.13;;;1.80;99.90;;;;;;5076064;28;20028;-77
2022/12/04 09:43:45;;;;;;;46.80;22.95;;;1.90;99.90;;;;;;5091805;28;20032;-76
2022/12/04 09:46:25;;;;;;;41.00;22.85;;;2.00;99.90;;;;;;5079924;28;20040;-77
2022/12/04 09:48:52;;;;;;;45.70;23.17;;;2.10;99.90;;;;;;5075581;28;20032;-77
2022/12/04 09:51:21;;;;;;;44.20;22.48;;;2.10;99.90;;;;;;5092366;28;20078;-77
2022/12/04 09:53:56;;;;;;;45.60;23.40;;;2.10;99.90;;;;;;5093320;28;20501;-76
2022/12/04 09:56:26;;;;;;;38.17;20.48;;;2.10;99.90;;;;;;5092693;28;20082;-77
2022/12/04 09:58:54;;;;;;;43.83;21.20;;;2.30;99.90;;;;;;5076948;28;20068;-80
2022/12/04 10:01:44;;;;;;;44.67;22.13;;;2.30;99.90;;;;;;5092405;28;20108;-77
2022/12/04 10:04:10;;;;;;;37.47;19.92;;;2.30;99.90;;;;;;5092469;28;20166;-77
2022/12/04 10:06:59;;;;;;;39.83;20.67;;;2.30;99.90;;;;;;5076627;28;20118;-80
2022/12/04 10:09:59;;;;;;;42.53;22.35;;;2.40;99.90;;;;;;5078324;28;20102;-79
2022/12/04 10:12:48;;;;;;;42.20;21.20;;;2.40;99.90;;;;;;5084681;28;20398;-79
2022/12/04 10:15:43;;;;;;;39.80;20.92;;;2.30;99.90;;;;;;5090017;28;20036;-78
2022/12/04 10:18:27;;;;;;;40.92;21.17;;;2.30;99.90;;;;;;5098790;28;20382;-79
2022/12/04 10:21:16;;;;;;;42.55;22.52;;;2.40;99.90;;;;;;5088132;28;20509;-78
2022/12/04 10:24:14;;;;;;;38.35;21.92;;;2.40;99.90;;;;;;5091912;28;20036;-78
2022/12/04 10:26:44;;;;;;;38.95;21.80;;;2.40;99.90;;;;;;5075346;28;20067;-78
2022/12/04 10:29:23;;;;;;;37.45;19.52;;;2.30;99.90;;;;;;5092122;28;20441;-76
2022/12/04 10:31:50;;;;;;;40.30;20.35;;;2.40;99.90;;;;;;5088640;28;20051;-75
2022/12/04 10:34:22;;;;;;;37.47;20.48;;;2.40;99.90;;;;;;5068341;28;20040;-76
2022/12/04 10:36:54;;;;;;;38.17;21.10;;;2.40;99.90;;;;;;5079704;28;20089;-76
2022/12/04 10:39:33;;;;;;;38.67;19.95;;;2.50;99.90;;;;;;5080425;28;20048;-76
2022/12/04 10:42:05;;;;;;;35.28;19.70;;;2.60;99.90;;;;;;5093490;28;20082;-75
2022/12/04 10:44:30;;;;;;;38.20;22.23;;;2.50;99.90;;;;;;5075812;28;20485;-76
2022/12/04 10:47:02;;;;;;;33.40;17.50;;;2.50;99.90;;;;;;5071137;28;20097;-76
2022/12/04 10:49:29;;;;;;;31.83;17.95;;;2.50;99.90;;;;;;5073681;28;20032;-75
2022/12/04 10:51:55;;;;;;;33.90;20.42;;;2.60;99.90;;;;;;5078740;28;20043;-75
2022/12/04 10:54:34;;;;;;;35.72;19.05;;;2.60;99.90;;;;;;5077437;28;20037;-77
2022/12/04 10:57:05;;;;;;;30.75;18.17;;;2.60;99.90;;;;;;5097440;28;20036;-76
2022/12/04 10:59:31;;;;;;;33.97;18.30;;;2.60;99.90;;;;;;5063789;28;20494;-75
2022/12/04 11:02:17;;;;;;;34.90;17.33;;;2.60;99.90;;;;;;5080480;28;20036;-76
2022/12/04 11:04:53;;;;;;;34.28;18.08;;;2.70;99.90;;;;;;5064515;28;20508;-76
2022/12/04 11:07:22;;;;;;;34.15;18.17;;;2.70;99.90;;;;;;5081469;28;20028;-75
2022/12/04 11:10:19;;;;;;;33.28;17.35;;;2.70;99.90;;;;;;5083705;28;20044;-75
2022/12/04 11:12:59;;;;;;;27.77;15.43;;;2.70;99.90;;;;;;5090879;28;20055;-74
2022/12/04 11:15:27;;;;;;;32.35;17.40;;;2.70;99.90;;;;;;5091584;28;20082;-75
2022/12/04 11:17:52;;;;;;;29.63;15.50;;;2.70;99.90;;;;;;5090616;28;20055;-75
2022/12/04 11:20:21;;;;;;;26.35;15.02;;;2.70;99.90;;;;;;5090702;28;20417;-75
2022/12/04 11:22:55;;;;;;;26.73;15.40;;;2.80;99.90;;;;;;5107466;28;20032;-75
2022/12/04 11:25:25;;;;;;;29.02;14.70;;;2.80;99.90;;;;;;5107783;28;20036;-75
2022/12/04 11:27:56;;;;;;;24.60;13.63;;;2.80;99.90;;;;;;5073342;28;20039;-75
2022/12/04 11:30:32;;;;;;;27.90;13.93;;;2.80;99.90;;;;;;5107319;28;20045;-75
2022/12/04 11:32:59;;;;;;;27.02;14.73;;;2.80;99.90;;;;;;5090519;28;20367;-75
2022/12/04 11:35:28;;;;;;;27.38;13.85;;;2.80;99.90;;;;;;5090784;28;20401;-75
2022/12/04 11:38:06;;;;;;;22.02;12.73;;;2.90;99.90;;;;;;5107589;28;20084;-75
2022/12/04 11:40:33;;;;;;;22.33;12.25;;;2.90;99.90;;;;;;5107438;28;20085;-74
2022/12/04 11:43:11;;;;;;;23.42;13.65;;;2.90;99.90;;;;;;5090398;28;20047;-75
2022/12/04 11:45:36;;;;;;;24.92;13.48;;;2.90;99.90;;;;;;5107567;28;20493;-75
2022/12/04 11:48:12;;;;;;;23.17;15.20;;;2.90;99.90;;;;;;5073636;28;20043;-76
2022/12/04 11:51:17;;;;;;;26.98;15.73;;;2.90;99.90;;;;;;5073405;28;20033;-76
2022/12/04 11:53:43;;;;;;;24.92;13.57;;;3.00;99.90;;;;;;5090038;28;20036;-76
2022/12/04 11:56:16;;;;;;;24.83;14.05;;;2.90;99.90;;;;;;5090277;28;20194;-76
2022/12/04 11:58:50;;;;;;;23.95;13.90;;;2.90;99.90;;;;;;5107042;28;20047;-75
2022/12/04 12:01:25;;;;;;;22.58;12.55;;;3.00;99.90;;;;;;5085928;28;20051;-75
2022/12/04 12:04:09;;;;;;;23.45;13.07;;;3.00;99.90;;;;;;5065449;28;20044;-76
2022/12/04 12:07:01;;;;;;;23.05;12.88;;;3.00;99.90;;;;;;5087781;28;20070;-76
2022/12/04 12:09:52;;;;;;;23.70;13.80;;;3.00;99.90;;;;;;5069960;28;20076;-75
2022/12/04 12:12:26;;;;;;;27.55;14.32;;;3.00;99.90;;;;;;5089511;28;20047;-76
2022/12/04 12:15:09;;;;;;;25.00;14.52;;;3.00;99.90;;;;;;5090135;28;20048;-76
2022/12/04 12:17:48;;;;;;;27.03;14.27;;;3.00;99.90;;;;;;5081192;28;20037;-76
2022/12/04 12:20:36;;;;;;;24.27;14.32;;;3.00;99.90;;;;;;5082004;28;20062;-76
2022/12/04 12:23:26;;;;;;;27.10;14.52;;;3.10;99.90;;;;;;5086010;28;20401;-75
2022/12/04 12:26:09;;;;;;;24.95;14.73;;;3.00;99.90;;;;;;5080241;28;20555;-76
2022/12/04 12:28:47;;;;;;;27.30;14.43;;;3.00;99.90;;;;;;5064282;28;20119;-75
2022/12/04 12:31:57;;;;;;;27.40;14.95;;;3.00;99.90;;;;;;5089860;28;20040;-76
2022/12/04 12:34:31;;;;;;;30.90;17.15;;;3.10;99.90;;;;;;5090119;28;20043;-76
2022/12/04 12:37:02;;;;;;;27.77;16.67;;;3.10;99.90;;;;;;5073152;28;20078;-75
2022/12/04 12:39:56;;;;;;;29.85;15.65;;;3.00;99.90;;;;;;5102954;28;20090;-76
2022/12/04 12:42:45;;;;;;;30.52;15.65;;;3.00;99.90;;;;;;5066623;28;20044;-84
2022/12/04 12:45:17;;;;;;;27.95;16.33;;;3.00;99.90;;;;;;5085503;28;20067;-75
2022/12/04 12:47:48;;;;;;;31.30;17.67;;;3.10;99.90;;;;;;5093531;28;20131;-75
2022/12/04 12:50:31;;;;;;;29.00;15.65;;;2.90;99.90;;;;;;5093327;28;20088;-75
2022/12/04 12:53:08;;;;;;;27.85;15.00;;;3.00;99.90;;;;;;5085180;28;20493;-75
2022/12/04 12:55:46;;;;;;;28.02;16.05;;;2.90;99.90;;;;;;5085994;28;20043;-75
2022/12/04 12:58:38;;;;;;;28.90;16.77;;;3.00;99.90;;;;;;5104823;28;20437;-76
2022/12/04 13:01:07;;;;;;;31.08;16.13;;;3.10;99.90;;;;;;5083654;28;20040;-75
2022/12/04 13:03:44;;;;;;;33.05;16.45;;;3.00;99.90;;;;;;5090964;28;20497;-75
2022/12/04 13:06:18;;;;;;;29.05;15.65;;;3.10;99.90;;;;;;5093435;28;20032;-75
2022/12/04 13:09:14;;;;;;;29.30;16.15;;;3.00;99.90;;;;;;5076037;28;20076;-74
2022/12/04 13:11:42;;;;;;;31.13;16.52;;;3.00;99.90;;;;;;5092189;28;20080;-74
2022/12/04 13:14:12;;;;;;;32.65;17.38;;;3.00;99.90;;;;;;5073096;28;20044;-74